Time;durP1;ratioP1;P1;durP2;ratioP2;P2;SDS_P1;SDS_P2;PMS_P1;PMS_P2;Temp;Humidity;BMP_temperature;BMP_pressure;BME280_temperature;BME280_humidity;BME280_pressure;Samples;Min_cycle;Max_cycle;Signal;HPM_P1;HPM_P2
2021/04/17 00:00:10;;;;;;;21.40;15.93;;;12.10;42.10;;;;;;5068923;28;20036;-53
2021/04/17 00:02:36;;;;;;;18.95;14.25;;;12.10;42.50;;;;;;5065890;28;20042;-51
2021/04/17 00:05:04;;;;;;;17.17;14.60;;;12.10;42.60;;;;;;5065314;28;20045;-55
2021/04/17 00:07:30;;;;;;;19.25;15.23;;;12.10;42.50;;;;;;5052310;28;20040;-53
2021/04/17 00:09:55;;;;;;;18.45;15.27;;;12.10;42.80;;;;;;5051875;28;20072;-55
2021/04/17 00:12:21;;;;;;;18.02;14.90;;;12.10;43.00;;;;;;5048482;28;20045;-50
2021/04/17 00:14:49;;;;;;;20.15;14.80;;;12.10;42.80;;;;;;5046182;28;20132;-56
2021/04/17 00:17:16;;;;;;;21.23;14.73;;;12.10;42.60;;;;;;5047355;28;20072;-57
2021/04/17 00:19:46;;;;;;;20.20;15.38;;;12.20;42.00;;;;;;5057036;28;20041;-56
2021/04/17 00:22:13;;;;;;;23.23;15.90;;;12.10;41.40;;;;;;5069349;28;20344;-55
2021/04/17 00:24:38;;;;;;;25.00;13.98;;;12.10;41.70;;;;;;5050602;28;20041;-56
2021/04/17 00:27:06;;;;;;;22.98;16.42;;;12.10;42.20;;;;;;5067171;28;20047;-55
2021/04/17 00:29:32;;;;;;;21.80;15.40;;;12.00;42.50;;;;;;5042643;28;20037;-52
2021/04/17 00:31:59;;;;;;;18.77;14.80;;;12.00;42.20;;;;;;5063885;28;20047;-52
2021/04/17 00:34:26;;;;;;;22.65;15.50;;;12.00;43.00;;;;;;5046832;28;20045;-56
2021/04/17 00:36:52;;;;;;;20.88;14.38;;;12.00;42.90;;;;;;5045805;28;20041;-52
2021/04/17 00:39:17;;;;;;;22.80;16.52;;;12.00;43.10;;;;;;5047427;28;20044;-52
2021/04/17 00:41:43;;;;;;;21.25;17.38;;;12.00;43.00;;;;;;5052249;28;20542;-53
2021/04/17 00:44:09;;;;;;;16.70;14.57;;;11.90;43.20;;;;;;5050976;28;20433;-55
2021/04/17 00:46:34;;;;;;;18.80;15.77;;;11.90;43.60;;;;;;5055124;28;20040;-56
2021/04/17 00:49:04;;;;;;;20.88;15.90;;;11.80;44.00;;;;;;5052065;28;20029;-54
2021/04/17 00:51:30;;;;;;;20.90;15.77;;;11.70;44.00;;;;;;5043813;28;20112;-50
2021/04/17 00:53:56;;;;;;;22.90;16.17;;;11.80;44.50;;;;;;5064269;28;20043;-56
2021/04/17 00:56:22;;;;;;;20.90;16.35;;;11.80;44.10;;;;;;5056216;28;20037;-56
2021/04/17 00:58:48;;;;;;;20.63;15.20;;;11.70;44.60;;;;;;5051500;28;20046;-55
2021/04/17 01:01:14;;;;;;;18.75;15.43;;;11.70;44.80;;;;;;5051015;28;20029;-50
2021/04/17 01:04:14;;;;;;;21.75;15.43;;;11.70;44.90;;;;;;5056396;28;20033;-52
2021/04/17 01:06:48;;;;;;;20.40;15.27;;;11.70;46.00;;;;;;4996711;28;20037;-55
2021/04/17 01:09:19;;;;;;;19.07;15.37;;;11.60;45.20;;;;;;5054412;28;20512;-55
2021/04/17 01:11:50;;;;;;;22.48;15.85;;;11.50;45.00;;;;;;5045863;28;20081;-57
2021/04/17 01:14:17;;;;;;;21.38;16.05;;;11.60;45.40;;;;;;5056133;28;20040;-54
2021/04/17 01:16:46;;;;;;;23.42;15.25;;;11.60;45.60;;;;;;5055890;28;20056;-54
2021/04/17 01:19:23;;;;;;;21.08;14.85;;;11.60;46.10;;;;;;5063872;28;20112;-55
2021/04/17 01:21:48;;;;;;;20.25;15.30;;;11.60;45.80;;;;;;5058404;28;20044;-52
2021/04/17 01:24:18;;;;;;;22.33;16.75;;;11.50;45.90;;;;;;5046251;28;20441;-55
2021/04/17 01:26:44;;;;;;;21.48;15.50;;;11.60;46.00;;;;;;5056765;28;20043;-55
2021/04/17 01:29:11;;;;;;;22.52;15.85;;;11.50;45.80;;;;;;5057150;28;20037;-56
2021/04/17 01:31:39;;;;;;;20.42;15.60;;;11.60;46.30;;;;;;5046662;28;20067;-56
2021/04/17 01:34:06;;;;;;;21.33;14.82;;;11.50;46.00;;;;;;5055878;28;20059;-55
2021/04/17 01:36:35;;;;;;;21.33;16.70;;;11.50;46.10;;;;;;5048912;28;20132;-53
2021/04/17 01:39:09;;;;;;;21.33;15.70;;;11.50;45.90;;;;;;5062938;28;20041;-55
2021/04/17 01:41:39;;;;;;;18.95;15.35;;;11.50;46.30;;;;;;5044497;28;20052;-55
2021/04/17 01:44:10;;;;;;;20.25;16.15;;;11.50;46.10;;;;;;5037681;28;20060;-53
2021/04/17 01:46:42;;;;;;;17.98;15.57;;;11.50;46.30;;;;;;5048919;28;20036;-55
2021/04/17 01:49:10;;;;;;;19.67;15.45;;;11.60;46.40;;;;;;5043940;28;20087;-56
2021/04/17 01:51:38;;;;;;;17.88;15.40;;;11.50;45.70;;;;;;5046836;28;20164;-55
2021/04/17 01:54:08;;;;;;;20.00;16.15;;;11.50;45.80;;;;;;5047843;28;20041;-56
2021/04/17 01:56:35;;;;;;;17.20;14.18;;;11.50;46.50;;;;;;5044571;28;20083;-55
2021/04/17 01:59:02;;;;;;;22.48;16.38;;;11.40;46.10;;;;;;5053830;28;20048;-53
2021/04/17 02:01:28;;;;;;;20.50;15.48;;;11.40;46.40;;;;;;5043495;28;20487;-53
2021/04/17 02:03:54;;;;;;;20.98;16.30;;;11.40;46.40;;;;;;5060785;28;20398;-51
2021/04/17 02:06:19;;;;;;;22.27;15.30;;;11.40;46.10;;;;;;5043364;28;20100;-54
2021/04/17 02:08:45;;;;;;;18.10;15.07;;;11.40;45.60;;;;;;5061570;28;20041;-54
2021/04/17 02:11:11;;;;;;;20.98;16.27;;;11.30;46.30;;;;;;5067697;28;20039;-52
2021/04/17 02:13:39;;;;;;;21.45;17.08;;;11.30;46.40;;;;;;5040157;28;20059;-54
2021/04/17 02:16:10;;;;;;;20.10;15.82;;;11.40;46.50;;;;;;5048462;28;20071;-52
2021/04/17 02:18:56;;;;;;;18.30;15.48;;;11.30;46.20;;;;;;5042260;28;20103;-52
2021/04/17 02:21:28;;;;;;;20.48;15.75;;;11.30;46.90;;;;;;5066814;28;20036;-56
2021/04/17 02:23:54;;;;;;;18.35;15.65;;;11.20;46.90;;;;;;5050329;28;20474;-55
2021/04/17 02:26:20;;;;;;;20.13;15.68;;;11.20;47.20;;;;;;5055023;28;20037;-54
2021/04/17 02:28:46;;;;;;;17.63;15.48;;;11.20;47.10;;;;;;5034441;28;20041;-56
2021/04/17 02:31:12;;;;;;;17.80;15.25;;;11.20;46.80;;;;;;5063722;28;20116;-53
2021/04/17 02:33:38;;;;;;;19.05;14.35;;;11.20;46.30;;;;;;5060792;28;20099;-55
2021/04/17 02:36:04;;;;;;;17.58;15.52;;;11.20;46.10;;;;;;5044536;28;20037;-52
2021/04/17 02:38:29;;;;;;;21.73;14.82;;;11.30;45.80;;;;;;5044422;28;20033;-53
2021/04/17 02:40:55;;;;;;;18.75;14.75;;;11.20;45.00;;;;;;5059065;28;20047;-53
2021/04/17 02:43:21;;;;;;;21.25;15.02;;;11.20;45.10;;;;;;5062722;28;20036;-55
2021/04/17 02:45:46;;;;;;;16.98;13.68;;;11.20;44.90;;;;;;5046677;28;20128;-56
2021/04/17 02:48:12;;;;;;;22.88;14.88;;;11.10;44.80;;;;;;5041921;28;20107;-53
2021/04/17 02:50:37;;;;;;;17.65;14.38;;;11.10;44.60;;;;;;5043504;28;20041;-52
2021/04/17 02:53:03;;;;;;;20.63;14.35;;;11.10;44.20;;;;;;5047265;28;20040;-54
2021/04/17 02:55:29;;;;;;;19.70;14.52;;;11.10;44.00;;;;;;5055986;28;20093;-53
2021/04/17 02:57:54;;;;;;;23.52;14.32;;;11.10;44.10;;;;;;5064431;28;20063;-52
2021/04/17 03:00:24;;;;;;;18.08;14.57;;;11.10;44.00;;;;;;5043563;28;20045;-54
2021/04/17 03:02:52;;;;;;;19.85;13.88;;;11.10;44.10;;;;;;5054934;28;20048;-52
2021/04/17 03:05:20;;;;;;;18.70;14.18;;;11.00;44.10;;;;;;5052976;28;20405;-57
2021/04/17 03:07:46;;;;;;;16.20;13.50;;;11.10;44.10;;;;;;5049105;28;20045;-55
2021/04/17 03:10:13;;;;;;;18.33;13.85;;;11.00;43.90;;;;;;5047179;28;20501;-53
2021/04/17 03:12:39;;;;;;;18.50;13.90;;;11.00;44.10;;;;;;5051363;28;20116;-54
2021/04/17 03:15:07;;;;;;;20.17;14.50;;;10.90;44.40;;;;;;5049250;28;20088;-54
2021/04/17 03:17:33;;;;;;;17.27;13.23;;;10.90;44.50;;;;;;5045485;28;20128;-57
2021/04/17 03:19:59;;;;;;;18.07;14.10;;;10.90;44.70;;;;;;5043723;28;20123;-54
2021/04/17 03:22:24;;;;;;;20.17;14.13;;;10.90;44.70;;;;;;5049771;28;20047;-53
2021/04/17 03:24:50;;;;;;;17.60;13.52;;;10.80;44.60;;;;;;5043322;28;20059;-55
2021/04/17 03:27:15;;;;;;;19.67;14.20;;;10.90;44.50;;;;;;5042044;28;20033;-52
2021/04/17 03:29:41;;;;;;;17.52;13.68;;;10.80;43.90;;;;;;5063743;28;20045;-54
2021/04/17 03:32:07;;;;;;;20.27;14.35;;;10.80;43.90;;;;;;5060446;28;20040;-53
2021/04/17 03:34:33;;;;;;;19.90;13.07;;;10.80;44.60;;;;;;5064425;28;20517;-54
2021/04/17 03:36:58;;;;;;;16.45;13.10;;;10.80;44.40;;;;;;5055094;28;20040;-56
2021/04/17 03:39:24;;;;;;;16.15;12.80;;;10.70;44.20;;;;;;5063048;28;20045;-54
2021/04/17 03:41:49;;;;;;;16.42;12.95;;;10.70;44.80;;;;;;5050927;28;20051;-57
2021/04/17 03:44:15;;;;;;;18.02;12.45;;;10.70;44.50;;;;;;5050409;28;20056;-56
2021/04/17 03:46:41;;;;;;;18.87;12.93;;;10.70;45.10;;;;;;5057154;28;20403;-54
2021/04/17 03:49:06;;;;;;;18.52;13.43;;;10.70;44.70;;;;;;5049637;28;20536;-55
2021/04/17 03:51:32;;;;;;;16.67;12.40;;;10.70;45.40;;;;;;5048609;28;20411;-56
2021/04/17 03:53:58;;;;;;;19.60;11.83;;;10.60;44.90;;;;;;5052309;28;20479;-55
2021/04/17 03:56:24;;;;;;;15.85;13.13;;;10.70;45.00;;;;;;5045210;28;20150;-57
2021/04/17 03:58:49;;;;;;;16.60;13.00;;;10.60;44.60;;;;;;5056458;28;20196;-56
2021/04/17 04:01:15;;;;;;;15.83;12.20;;;10.60;44.90;;;;;;5055720;28;20056;-52
2021/04/17 04:03:41;;;;;;;18.70;12.87;;;10.60;44.60;;;;;;5056821;28;20451;-57
2021/04/17 04:06:07;;;;;;;17.63;12.57;;;10.60;44.70;;;;;;5054071;28;20513;-56
2021/04/17 04:08:32;;;;;;;17.88;13.13;;;10.60;44.60;;;;;;5052894;28;20032;-56
2021/04/17 04:10:59;;;;;;;16.77;12.30;;;10.70;44.10;;;;;;5048501;28;20501;-56
2021/04/17 04:13:25;;;;;;;15.63;12.03;;;10.60;44.40;;;;;;5038008;28;20098;-57
2021/04/17 04:15:51;;;;;;;17.60;11.97;;;10.50;44.80;;;;;;5053698;28;20040;-57
2021/04/17 04:18:16;;;;;;;13.63;11.43;;;10.50;45.30;;;;;;5032634;28;20512;-57
2021/04/17 04:20:42;;;;;;;16.87;12.73;;;10.50;45.20;;;;;;5048219;28;20418;-55
2021/04/17 04:23:08;;;;;;;15.20;11.80;;;10.60;45.20;;;;;;5044552;28;20036;-55
2021/04/17 04:25:34;;;;;;;15.83;12.23;;;10.60;45.70;;;;;;5062216;28;20041;-57
2021/04/17 04:28:00;;;;;;;17.40;13.43;;;10.50;46.10;;;;;;5061705;28;20118;-58
2021/04/17 04:30:25;;;;;;;16.67;11.73;;;10.60;45.80;;;;;;5059953;28;20498;-57
2021/04/17 04:32:51;;;;;;;15.77;12.83;;;10.40;45.90;;;;;;5051716;28;20583;-55
2021/04/17 04:35:17;;;;;;;16.63;12.83;;;10.50;46.10;;;;;;5059209;28;20502;-56
2021/04/17 04:37:42;;;;;;;18.70;13.33;;;10.40;46.70;;;;;;5042227;28;20490;-55
2021/04/17 04:40:09;;;;;;;18.07;12.77;;;10.50;46.60;;;;;;5047886;28;20067;-52
2021/04/17 04:42:36;;;;;;;16.73;11.73;;;10.40;46.00;;;;;;5052505;28;20081;-53
2021/04/17 04:45:04;;;;;;;13.93;10.47;;;10.40;45.80;;;;;;5053810;28;20044;-56
2021/04/17 04:47:30;;;;;;;15.17;11.07;;;10.30;45.60;;;;;;5069891;28;20115;-55
2021/04/17 04:49:56;;;;;;;13.17;10.50;;;10.30;45.60;;;;;;5065147;28;20706;-55
2021/04/17 04:52:22;;;;;;;13.43;10.70;;;10.30;45.60;;;;;;5057385;28;20033;-52
2021/04/17 04:54:47;;;;;;;14.97;11.03;;;10.40;45.60;;;;;;5048618;28;20048;-56
2021/04/17 04:57:13;;;;;;;13.67;9.93;;;10.40;45.10;;;;;;5053220;28;20036;-56
2021/04/17 04:59:38;;;;;;;14.33;10.37;;;10.50;45.00;;;;;;5053349;28;20479;-56
2021/04/17 05:02:04;;;;;;;13.43;10.57;;;10.40;45.40;;;;;;5055229;28;20086;-52
2021/04/17 05:04:30;;;;;;;15.13;12.13;;;10.50;45.30;;;;;;5057958;28;20578;-56
2021/04/17 05:06:56;;;;;;;15.43;10.57;;;10.40;45.70;;;;;;5037374;28;20041;-56
2021/04/17 05:09:21;;;;;;;15.23;10.83;;;10.50;45.90;;;;;;5060682;28;20086;-55
2021/04/17 05:11:47;;;;;;;13.80;10.47;;;10.40;45.80;;;;;;5063316;28;20037;-55
2021/04/17 05:14:13;;;;;;;13.57;11.20;;;10.40;45.60;;;;;;5068685;28;20059;-53
2021/04/17 05:16:38;;;;;;;15.67;10.23;;;10.40;45.80;;;;;;5063572;28;20466;-55
2021/04/17 05:19:04;;;;;;;16.30;10.77;;;10.30;46.50;;;;;;5067380;28;20525;-54
2021/04/17 05:21:30;;;;;;;14.27;10.70;;;10.50;46.00;;;;;;5047038;28;20090;-56
2021/04/17 05:23:56;;;;;;;16.53;10.97;;;10.40;45.30;;;;;;5056477;28;20041;-55
2021/04/17 05:26:22;;;;;;;12.90;9.70;;;10.50;45.30;;;;;;5050348;28;20048;-56
2021/04/17 05:28:47;;;;;;;14.10;10.73;;;10.50;45.30;;;;;;5031278;28;20048;-53
2021/04/17 05:31:13;;;;;;;14.10;10.43;;;10.60;45.50;;;;;;5037009;28;20040;-57
2021/04/17 05:33:38;;;;;;;12.70;10.00;;;10.60;45.20;;;;;;5056339;28;20041;-56
2021/04/17 05:36:05;;;;;;;17.77;12.17;;;10.60;44.80;;;;;;5045512;28;20045;-51
2021/04/17 05:38:31;;;;;;;16.40;11.60;;;10.60;44.90;;;;;;5045212;28;20486;-56
2021/04/17 05:40:57;;;;;;;14.00;10.40;;;10.60;44.50;;;;;;5039350;28;20029;-55
2021/04/17 05:43:23;;;;;;;18.03;10.00;;;10.60;44.80;;;;;;5050348;28;20041;-53
2021/04/17 05:45:48;;;;;;;12.57;9.87;;;10.70;44.60;;;;;;5056327;28;20032;-54
2021/04/17 05:48:14;;;;;;;12.53;9.90;;;10.70;44.10;;;;;;5043326;28;20479;-55
2021/04/17 05:50:40;;;;;;;13.93;10.20;;;10.80;43.90;;;;;;5047050;28;20043;-52
2021/04/17 05:53:05;;;;;;;12.73;9.83;;;10.80;43.60;;;;;;5042035;28;20044;-56
2021/04/17 05:55:31;;;;;;;14.93;10.03;;;10.80;43.80;;;;;;5056106;28;20052;-53
2021/04/17 05:57:57;;;;;;;15.83;11.30;;;10.90;43.50;;;;;;5042286;28;20033;-55
2021/04/17 06:00:23;;;;;;;19.10;10.67;;;10.90;43.40;;;;;;5050070;28;20207;-56
2021/04/17 06:02:52;;;;;;;14.10;10.97;;;10.80;43.20;;;;;;5049950;28;20094;-55
2021/04/17 06:05:17;;;;;;;19.23;11.80;;;10.90;43.10;;;;;;5059855;28;20505;-56
2021/04/17 06:07:43;;;;;;;15.60;11.43;;;10.90;42.80;;;;;;5053623;28;22650;-54
2021/04/17 06:10:09;;;;;;;15.73;11.37;;;10.90;42.40;;;;;;5065640;28;20039;-55
2021/04/17 06:12:35;;;;;;;15.97;11.83;;;11.00;42.50;;;;;;5062291;28;20429;-55
2021/04/17 06:15:01;;;;;;;18.40;12.13;;;11.00;42.10;;;;;;5066828;28;20056;-56
2021/04/17 06:17:27;;;;;;;15.13;11.17;;;11.10;42.30;;;;;;5059429;28;20059;-55
2021/04/17 06:19:52;;;;;;;17.20;12.30;;;11.20;42.10;;;;;;5066787;28;20036;-56
2021/04/17 06:22:18;;;;;;;20.37;12.13;;;11.20;42.20;;;;;;5056243;28;20040;-56
2021/04/17 06:24:43;;;;;;;20.30;11.80;;;11.20;42.20;;;;;;5058017;28;20049;-53
2021/04/17 06:27:09;;;;;;;17.43;13.13;;;11.30;41.70;;;;;;5050628;28;20474;-51
2021/04/17 06:29:35;;;;;;;19.43;12.63;;;11.20;41.70;;;;;;5042924;28;20116;-53
2021/04/17 06:32:00;;;;;;;15.87;12.17;;;11.30;41.80;;;;;;5042706;28;20059;-55
2021/04/17 06:34:26;;;;;;;17.23;12.20;;;11.30;42.00;;;;;;5053667;28;20379;-52
2021/04/17 06:36:52;;;;;;;16.27;12.43;;;11.30;41.40;;;;;;5035102;28;20037;-53
2021/04/17 06:39:17;;;;;;;16.73;12.43;;;11.40;41.70;;;;;;5055665;28;20040;-55
2021/04/17 06:41:47;;;;;;;20.23;12.03;;;11.40;41.20;;;;;;5052307;28;20043;-54
2021/04/17 06:44:15;;;;;;;17.77;11.50;;;11.40;41.60;;;;;;5046259;28;20036;-57
2021/04/17 06:46:42;;;;;;;15.73;12.43;;;11.40;41.00;;;;;;5032388;28;20048;-56
2021/04/17 06:49:08;;;;;;;20.97;11.73;;;11.40;40.70;;;;;;5028578;28;20045;-53
2021/04/17 06:51:37;;;;;;;17.87;12.40;;;11.40;41.30;;;;;;5049600;28;20055;-56
2021/04/17 06:54:05;;;;;;;16.63;11.87;;;11.40;40.90;;;;;;5044630;28;20056;-53
2021/04/17 06:56:31;;;;;;;17.57;11.10;;;11.50;40.90;;;;;;5054934;28;20033;-54
2021/04/17 06:58:58;;;;;;;19.50;12.57;;;11.40;40.60;;;;;;5061243;28;20478;-55
2021/04/17 07:01:24;;;;;;;17.33;12.87;;;11.50;40.40;;;;;;5064361;28;20044;-54
2021/04/17 07:03:50;;;;;;;15.67;12.40;;;11.50;40.80;;;;;;5059304;28;20464;-55
2021/04/17 07:06:15;;;;;;;18.95;12.43;;;11.50;41.20;;;;;;5057513;28;20048;-55
2021/04/17 07:08:42;;;;;;;17.05;12.52;;;11.50;41.00;;;;;;5058950;28;20078;-57
2021/04/17 07:11:08;;;;;;;18.87;13.37;;;11.60;41.30;;;;;;5040787;28;20387;-55
2021/04/17 07:13:34;;;;;;;20.17;12.82;;;11.60;41.30;;;;;;5046067;28;20043;-57
2021/04/17 07:16:10;;;;;;;17.83;13.35;;;11.60;41.10;;;;;;5044758;28;20349;-53
2021/04/17 07:18:39;;;;;;;19.67;13.40;;;11.60;40.80;;;;;;5013334;28;20045;-57
2021/04/17 07:21:14;;;;;;;16.35;12.95;;;11.60;41.30;;;;;;5007631;28;20042;-55
2021/04/17 07:23:43;;;;;;;;;;;11.60;41.50;;;;;;5012364;28;20040;-53
2021/04/17 07:26:18;;;;;;;18.37;12.83;;;11.60;41.40;;;;;;5005562;28;19913;-55
2021/04/17 07:29:00;;;;;;;17.87;11.90;;;11.70;41.40;;;;;;5013996;28;20046;-54
2021/04/17 07:31:28;;;;;;;16.57;12.80;;;11.80;41.10;;;;;;5009706;28;20130;-56
2021/04/17 07:33:55;;;;;;;16.47;12.13;;;11.70;40.90;;;;;;5015491;28;20488;-56
2021/04/17 07:36:22;;;;;;;19.58;12.85;;;11.90;41.10;;;;;;5004502;28;20037;-57
2021/04/17 07:38:48;;;;;;;14.80;11.55;;;11.90;40.70;;;;;;5008451;28;20042;-58
2021/04/17 07:41:20;;;;;;;17.52;12.55;;;12.00;40.40;;;;;;5012101;28;20049;-55
2021/04/17 07:43:58;;;;;;;19.50;12.75;;;12.00;40.70;;;;;;5012473;28;20050;-55
2021/04/17 07:46:31;;;;;;;16.73;12.10;;;12.00;40.60;;;;;;5003877;28;20522;-53
2021/04/17 07:49:13;;;;;;;16.20;11.57;;;12.10;40.70;;;;;;5003956;28;20042;-58
2021/04/17 07:52:02;;;;;;;14.67;11.47;;;12.00;40.30;;;;;;4996295;28;20349;-57
2021/04/17 07:54:29;;;;;;;15.63;11.10;;;12.00;40.10;;;;;;5008382;28;20904;-53
2021/04/17 07:56:56;;;;;;;13.38;10.98;;;12.00;39.90;;;;;;5006580;28;20093;-57
2021/04/17 07:59:24;;;;;;;18.10;11.05;;;12.00;40.50;;;;;;5008719;28;20084;-58
2021/04/17 08:01:51;;;;;;;17.13;11.73;;;12.10;40.30;;;;;;5009468;28;20080;-58
2021/04/17 08:04:26;;;;;;;13.10;10.43;;;12.00;39.90;;;;;;5018031;28;20391;-58
2021/04/17 08:06:53;;;;;;;13.85;9.98;;;12.10;39.90;;;;;;5017529;28;20100;-58
2021/04/17 08:09:24;;;;;;;15.32;11.13;;;12.10;40.00;;;;;;5008337;28;20037;-58
2021/04/17 08:11:53;;;;;;;14.43;10.80;;;12.30;40.00;;;;;;5017981;28;20041;-59
2021/04/17 08:14:21;;;;;;;16.73;11.32;;;12.30;39.80;;;;;;5019404;28;20037;-59
2021/04/17 08:16:49;;;;;;;17.27;11.50;;;12.30;40.00;;;;;;5032241;28;20041;-59
2021/04/17 08:19:16;;;;;;;14.82;11.18;;;12.30;40.00;;;;;;5053626;28;20452;-57
2021/04/17 08:21:42;;;;;;;15.27;10.68;;;12.40;39.70;;;;;;5068486;28;20049;-59
2021/04/17 08:24:09;;;;;;;16.17;11.55;;;12.50;39.20;;;;;;5050075;28;20610;-58
2021/04/17 08:26:36;;;;;;;13.93;10.45;;;12.50;39.20;;;;;;5058330;28;20128;-59
2021/04/17 08:29:03;;;;;;;15.15;9.93;;;12.60;39.50;;;;;;5053068;28;20494;-59
2021/04/17 08:31:38;;;;;;;13.75;10.38;;;12.50;39.20;;;;;;5048191;28;20102;-58
2021/04/17 08:34:20;;;;;;;15.27;10.80;;;12.60;38.90;;;;;;5049238;28;20556;-59
2021/04/17 08:36:47;;;;;;;16.15;10.75;;;12.70;38.50;;;;;;5026366;28;20037;-58
2021/04/17 08:39:31;;;;;;;15.23;10.75;;;12.70;38.50;;;;;;5050931;28;20037;-59
2021/04/17 08:41:57;;;;;;;15.18;11.63;;;12.70;38.30;;;;;;5055972;28;20036;-58
2021/04/17 08:44:27;;;;;;;16.75;10.82;;;12.80;38.80;;;;;;5058519;28;20043;-58
2021/04/17 08:46:54;;;;;;;18.25;12.25;;;12.80;38.10;;;;;;5071933;28;20408;-58
2021/04/17 08:49:25;;;;;;;15.77;11.10;;;12.90;38.20;;;;;;5052086;28;20047;-58
2021/04/17 08:51:51;;;;;;;16.85;11.32;;;12.90;38.50;;;;;;5059924;28;20050;-58
2021/04/17 08:54:20;;;;;;;16.00;11.73;;;13.00;38.10;;;;;;5048936;28;20524;-58
2021/04/17 08:56:50;;;;;;;19.33;12.00;;;13.00;37.70;;;;;;5051800;28;20045;-59
2021/04/17 08:59:28;;;;;;;18.60;12.25;;;13.00;39.00;;;;;;5046028;28;20028;-55
2021/04/17 09:01:56;;;;;;;17.85;12.25;;;13.10;38.60;;;;;;5061716;28;20047;-60
2021/04/17 09:04:23;;;;;;;15.30;11.48;;;13.20;38.60;;;;;;5058115;28;20043;-59
2021/04/17 09:06:51;;;;;;;17.10;11.32;;;13.30;37.50;;;;;;5037820;28;20449;-58
2021/04/17 09:09:20;;;;;;;15.43;11.73;;;13.30;37.10;;;;;;5056152;28;20047;-58
2021/04/17 09:11:54;;;;;;;19.35;12.15;;;13.30;36.90;;;;;;5067116;28;20033;-57
2021/04/17 09:14:30;;;;;;;18.33;12.73;;;13.40;37.10;;;;;;5051143;28;20082;-59
2021/04/17 09:16:58;;;;;;;18.38;13.30;;;13.50;36.40;;;;;;5066478;28;20044;-58
2021/04/17 09:19:39;;;;;;;16.33;11.93;;;13.50;36.10;;;;;;5044631;28;20612;-59
2021/04/17 09:22:26;;;;;;;14.52;11.77;;;13.50;36.50;;;;;;5048507;28;20463;-57
2021/04/17 09:24:55;;;;;;;15.80;10.73;;;13.60;36.60;;;;;;5047091;28;20064;-58
2021/04/17 09:27:32;;;;;;;22.02;13.13;;;13.70;36.90;;;;;;5055044;28;20029;-57
2021/04/17 09:30:07;;;;;;;17.38;11.73;;;13.70;36.60;;;;;;5044928;28;20486;-58
2021/04/17 09:32:33;;;;;;;;;;;13.70;35.90;;;;;;5050923;28;20033;-58
2021/04/17 09:35:00;;;;;;;18.05;12.52;;;13.80;36.50;;;;;;5045611;28;19920;-58
2021/04/17 09:37:27;;;;;;;17.95;12.60;;;13.80;36.60;;;;;;5062641;28;20044;-57
2021/04/17 09:39:53;;;;;;;18.85;13.45;;;14.00;36.20;;;;;;5059754;28;20040;-57
2021/04/17 09:42:29;;;;;;;16.70;12.10;;;14.00;36.30;;;;;;5030234;28;20360;-57
2021/04/17 09:44:55;;;;;;;16.45;13.55;;;14.10;35.90;;;;;;5015939;28;20049;-57
2021/04/17 09:47:20;;;;;;;17.63;12.23;;;14.10;36.10;;;;;;5048071;28;20157;-57
2021/04/17 09:49:48;;;;;;;16.52;11.73;;;14.10;35.30;;;;;;5049543;28;20526;-56
2021/04/17 09:52:20;;;;;;;17.70;11.93;;;14.30;35.60;;;;;;5040368;28;20033;-56
2021/04/17 09:54:47;;;;;;;16.88;12.65;;;14.40;35.30;;;;;;5060281;28;20051;-55
2021/04/17 09:57:13;;;;;;;19.38;12.50;;;14.40;34.10;;;;;;5042432;28;20040;-57
2021/04/17 09:59:56;;;;;;;19.98;11.65;;;14.40;33.70;;;;;;5039321;28;20045;-57
2021/04/17 10:02:23;;;;;;;17.55;12.18;;;14.40;33.30;;;;;;5042577;28;20044;-57
2021/04/17 10:04:50;;;;;;;17.52;12.23;;;14.50;34.30;;;;;;5043917;28;20056;-56
2021/04/17 10:07:16;;;;;;;18.27;12.70;;;14.50;33.90;;;;;;5050476;28;20043;-58
2021/04/17 10:09:43;;;;;;;19.13;13.07;;;14.60;33.70;;;;;;5059385;28;20045;-57
2021/04/17 10:12:09;;;;;;;17.08;12.40;;;14.70;33.40;;;;;;5049802;28;20870;-56
2021/04/17 10:14:35;;;;;;;16.48;12.23;;;14.70;33.10;;;;;;5058464;28;20044;-59
2021/04/17 10:17:01;;;;;;;15.73;12.48;;;14.80;33.00;;;;;;5047483;28;20509;-55
2021/04/17 10:19:30;;;;;;;18.23;13.27;;;14.80;32.70;;;;;;5063994;28;20041;-58
2021/04/17 10:21:58;;;;;;;16.55;12.32;;;14.80;32.00;;;;;;5055203;28;20032;-56
2021/04/17 10:24:37;;;;;;;16.15;12.10;;;14.80;32.30;;;;;;5053359;28;20045;-57
2021/04/17 10:27:14;;;;;;;16.80;13.27;;;15.00;32.70;;;;;;5053429;28;20399;-57
2021/04/17 10:29:45;;;;;;;15.80;12.48;;;15.10;32.00;;;;;;5022553;28;20506;-56
2021/04/17 10:32:16;;;;;;;17.55;12.57;;;15.10;32.50;;;;;;5046569;28;20049;-59
2021/04/17 10:34:48;;;;;;;18.38;11.98;;;15.20;32.60;;;;;;5062331;28;20048;-58
2021/04/17 10:37:17;;;;;;;17.25;12.88;;;15.20;32.30;;;;;;5059381;28;20064;-58
2021/04/17 10:40:05;;;;;;;19.00;12.90;;;15.30;32.50;;;;;;5062500;28;20041;-58
2021/04/17 10:42:50;;;;;;;17.33;12.43;;;15.40;31.50;;;;;;5057598;28;20033;-58
2021/04/17 10:45:37;;;;;;;15.05;12.32;;;15.30;31.20;;;;;;5036371;28;20044;-58
2021/04/17 10:48:06;;;;;;;17.30;13.77;;;15.40;30.90;;;;;;5036726;28;20173;-58
2021/04/17 10:50:51;;;;;;;17.67;13.88;;;15.40;30.60;;;;;;5056391;28;20136;-57
2021/04/17 10:53:23;;;;;;;15.10;12.20;;;15.60;31.20;;;;;;4991010;28;20131;-59
2021/04/17 10:55:52;;;;;;;16.55;13.65;;;15.50;30.80;;;;;;5044333;28;20049;-58
2021/04/17 10:58:21;;;;;;;16.60;13.77;;;15.50;30.80;;;;;;5046089;28;20060;-56
2021/04/17 11:00:56;;;;;;;16.58;13.45;;;15.70;31.90;;;;;;5049478;28;20079;-58
2021/04/17 11:03:27;;;;;;;16.58;12.85;;;15.90;30.90;;;;;;5040539;28;20049;-58
2021/04/17 11:05:53;;;;;;;15.65;12.90;;;15.90;31.00;;;;;;5054527;28;20037;-58
2021/04/17 11:08:31;;;;;;;18.35;13.68;;;15.80;30.70;;;;;;5048940;28;20124;-58
2021/04/17 11:11:07;;;;;;;16.75;13.20;;;16.10;30.40;;;;;;5044910;28;20044;-57
2021/04/17 11:13:35;;;;;;;15.90;12.75;;;16.20;30.90;;;;;;5044624;28;20128;-59
2021/04/17 11:16:02;;;;;;;16.05;12.80;;;16.20;30.70;;;;;;5057556;28;20516;-58
2021/04/17 11:18:36;;;;;;;15.90;11.57;;;16.20;30.20;;;;;;5051364;28;20517;-58
2021/04/17 11:21:20;;;;;;;17.02;12.52;;;16.30;29.90;;;;;;5049379;28;20048;-58
2021/04/17 11:23:47;;;;;;;16.95;12.45;;;16.50;29.40;;;;;;5024842;28;20120;-60
2021/04/17 11:26:24;;;;;;;14.70;12.13;;;16.40;28.70;;;;;;5041444;28;20065;-59
2021/04/17 11:28:56;;;;;;;15.63;13.38;;;16.80;29.20;;;;;;5065750;28;20071;-59
2021/04/17 11:31:30;;;;;;;15.35;12.10;;;16.80;28.20;;;;;;5060059;28;20075;-60
2021/04/17 11:33:59;;;;;;;14.13;12.07;;;16.70;29.00;;;;;;5063040;28;20115;-59
2021/04/17 11:36:27;;;;;;;15.38;11.90;;;16.70;27.70;;;;;;5040017;28;20049;-58
2021/04/17 11:38:54;;;;;;;17.00;12.40;;;17.10;28.50;;;;;;5043458;28;20112;-59
2021/04/17 11:41:21;;;;;;;13.77;11.63;;;17.30;28.20;;;;;;5051643;28;20486;-58
2021/04/17 11:43:47;;;;;;;16.73;12.10;;;20.90;26.30;;;;;;5056392;28;20128;-58
2021/04/17 11:46:14;;;;;;;14.15;12.63;;;21.40;24.00;;;;;;5048124;28;20047;-59
2021/04/17 11:48:41;;;;;;;15.32;12.85;;;21.20;23.30;;;;;;5028195;28;20510;-59
2021/04/17 11:51:09;;;;;;;16.35;13.70;;;19.90;24.80;;;;;;5038365;28;20051;-58
2021/04/17 11:53:36;;;;;;;18.17;13.57;;;18.80;26.20;;;;;;5067426;28;20028;-57
2021/04/17 11:56:02;;;;;;;17.20;13.40;;;18.20;27.30;;;;;;5066604;28;20060;-58
2021/04/17 11:58:28;;;;;;;17.38;12.70;;;20.80;26.00;;;;;;5062875;28;20460;-58
2021/04/17 12:00:54;;;;;;;16.08;12.60;;;25.00;22.40;;;;;;5056713;28;20127;-59
2021/04/17 12:03:23;;;;;;;14.13;12.27;;;27.00;20.80;;;;;;5064837;28;20036;-58
2021/04/17 12:05:54;;;;;;;17.08;13.25;;;26.10;20.20;;;;;;5056274;28;20367;-59
2021/04/17 12:08:21;;;;;;;12.68;11.20;;;26.50;20.10;;;;;;5069704;28;20106;-59
2021/04/17 12:10:47;;;;;;;13.68;12.20;;;26.50;19.60;;;;;;5069308;28;20036;-59
2021/04/17 12:13:13;;;;;;;13.35;11.93;;;24.10;19.60;;;;;;5066151;28;20097;-58
2021/04/17 12:15:40;;;;;;;13.00;10.95;;;23.80;21.00;;;;;;5069080;28;20409;-59
2021/04/17 12:18:07;;;;;;;15.18;13.60;;;24.20;20.50;;;;;;5056442;28;20124;-59
2021/04/17 12:20:32;;;;;;;17.75;13.60;;;24.10;20.90;;;;;;5047900;28;20437;-59
2021/04/17 12:22:58;;;;;;;18.83;14.52;;;23.00;22.00;;;;;;5052330;28;20091;-59
2021/04/17 12:25:24;;;;;;;16.38;13.82;;;22.00;22.70;;;;;;5050647;28;20389;-59
2021/04/17 12:27:50;;;;;;;16.33;13.60;;;20.50;24.00;;;;;;5059006;28;20132;-59
2021/04/17 12:30:17;;;;;;;13.65;12.25;;;20.90;24.00;;;;;;5053931;28;20047;-59
2021/04/17 12:32:42;;;;;;;13.70;12.30;;;22.00;23.10;;;;;;5056998;28;20127;-60